N227QK KMCO-KLAL
Flight info
| Callsign | N227QK |
|---|---|
| Flight time | 0h 30m |
| Altitude | 4500 |
| Route | VFR I4 SW BOUND |
| Aircraft | C208/L-SDFGR/C |
Departure
| Time | 2026-04-26 20:06 |
|---|---|
| Airport | Orlando International Airport (KMCO) |
Arrival
| Time | 2026-04-26 20:37 |
|---|---|
| Airport | Lakeland Linder International Airport (KLAL) |
| Time | Latitude | Longitude | Altitude | Speed | Heading |
|---|---|---|---|---|---|
| 2026-04-26 20:01 | 28.43277 | -81.33162 | 107 ft | 0 kts | 89° |
| 2026-04-26 20:01 | 28.43277 | -81.33159 | 113 ft | 2 kts | 89° |
| 2026-04-26 20:01 | 28.43285 | -81.33089 | 108 ft | 16 kts | 70° |
| 2026-04-26 20:02 | 28.43343 | -81.32938 | 107 ft | 22 kts | 54° |
| 2026-04-26 20:02 | 28.43437 | -81.32927 | 93 ft | 12 kts | 358° |
| 2026-04-26 20:02 | 28.43514 | -81.32930 | 107 ft | 11 kts | 360° |
| 2026-04-26 20:02 | 28.43573 | -81.32929 | 106 ft | 16 kts | 1° |
| 2026-04-26 20:03 | 28.43763 | -81.32931 | 100 ft | 22 kts | 360° |
| 2026-04-26 20:03 | 28.43906 | -81.32934 | 101 ft | 22 kts | 1° |
| 2026-04-26 20:03 | 28.44063 | -81.32868 | 101 ft | 22 kts | 21° |
| 2026-04-26 20:03 | 28.44186 | -81.32863 | 100 ft | 15 kts | 359° |
| 2026-04-26 20:04 | 28.44283 | -81.32864 | 102 ft | 16 kts | 359° |
| 2026-04-26 20:04 | 28.44417 | -81.32866 | 106 ft | 23 kts | 360° |
| 2026-04-26 20:04 | 28.44560 | -81.32866 | 107 ft | 17 kts | 1° |
| 2026-04-26 20:04 | 28.44660 | -81.32867 | 107 ft | 12 kts | 3° |
| 2026-04-26 20:05 | 28.44710 | -81.32802 | 109 ft | 10 kts | 90° |
| 2026-04-26 20:05 | 28.44695 | -81.32712 | 108 ft | 11 kts | 135° |
| 2026-04-26 20:05 | 28.44606 | -81.32695 | 108 ft | 21 kts | 179° |
| 2026-04-26 20:05 | 28.44292 | -81.32692 | 104 ft | 69 kts | 179° |
| 2026-04-26 20:06 | 28.43719 | -81.32667 | 162 ft | 94 kts | 178° |
| 2026-04-26 20:06 | 28.43011 | -81.32642 | 302 ft | 108 kts | 180° |
| 2026-04-26 20:06 | 28.42258 | -81.32628 | 586 ft | 109 kts | 182° |
| 2026-04-26 20:06 | 28.41520 | -81.32797 | 773 ft | 112 kts | 219° |
| 2026-04-26 20:07 | 28.41093 | -81.33543 | 974 ft | 118 kts | 249° |
| 2026-04-26 20:07 | 28.40680 | -81.34339 | 1157 ft | 119 kts | 240° |
| 2026-04-26 20:07 | 28.40239 | -81.35145 | 1326 ft | 120 kts | 239° |
| 2026-04-26 20:07 | 28.39779 | -81.35945 | 1485 ft | 121 kts | 238° |
| 2026-04-26 20:08 | 28.39292 | -81.36760 | 1650 ft | 128 kts | 237° |
| 2026-04-26 20:08 | 28.38768 | -81.37603 | 1817 ft | 134 kts | 236° |
| 2026-04-26 20:08 | 28.38201 | -81.38474 | 1970 ft | 140 kts | 235° |
| 2026-04-26 20:08 | 28.37592 | -81.39360 | 2127 ft | 142 kts | 233° |
| 2026-04-26 20:09 | 28.36959 | -81.40233 | 2277 ft | 146 kts | 231° |
| 2026-04-26 20:09 | 28.36465 | -81.41228 | 2424 ft | 145 kts | 254° |
| 2026-04-26 20:09 | 28.36091 | -81.42289 | 2627 ft | 145 kts | 244° |
| 2026-04-26 20:09 | 28.35606 | -81.43282 | 2822 ft | 142 kts | 242° |
| 2026-04-26 20:10 | 28.35123 | -81.44249 | 3016 ft | 140 kts | 242° |
| 2026-04-26 20:10 | 28.34652 | -81.45203 | 3202 ft | 137 kts | 242° |
| 2026-04-26 20:10 | 28.34183 | -81.46134 | 3398 ft | 136 kts | 242° |
| 2026-04-26 20:10 | 28.33712 | -81.47071 | 3590 ft | 137 kts | 243° |
| 2026-04-26 20:11 | 28.33240 | -81.48011 | 3787 ft | 137 kts | 243° |
| 2026-04-26 20:11 | 28.32774 | -81.48936 | 3976 ft | 136 kts | 243° |
| 2026-04-26 20:11 | 28.32299 | -81.49871 | 4174 ft | 138 kts | 242° |
| 2026-04-26 20:12 | 28.31343 | -81.51774 | 4504 ft | 142 kts | 243° |
| 2026-04-26 20:12 | 28.30840 | -81.52777 | 4510 ft | 151 kts | 243° |
| 2026-04-26 20:12 | 28.30309 | -81.53832 | 4517 ft | 156 kts | 243° |
| 2026-04-26 20:12 | 28.29760 | -81.54923 | 4516 ft | 161 kts | 243° |
| 2026-04-26 20:13 | 28.29198 | -81.56035 | 4518 ft | 164 kts | 243° |
| 2026-04-26 20:13 | 28.28629 | -81.57166 | 4518 ft | 166 kts | 243° |
| 2026-04-26 20:13 | 28.28059 | -81.58297 | 4517 ft | 165 kts | 242° |
| 2026-04-26 20:13 | 28.27493 | -81.59412 | 4515 ft | 166 kts | 242° |
| 2026-04-26 20:14 | 28.26920 | -81.60550 | 4518 ft | 166 kts | 243° |
| 2026-04-26 20:14 | 28.26344 | -81.61689 | 4516 ft | 167 kts | 243° |
| 2026-04-26 20:14 | 28.25763 | -81.62839 | 4513 ft | 169 kts | 242° |
| 2026-04-26 20:14 | 28.25181 | -81.63996 | 4516 ft | 169 kts | 243° |
| 2026-04-26 20:15 | 28.24594 | -81.65154 | 4518 ft | 170 kts | 242° |
| 2026-04-26 20:15 | 28.24005 | -81.66320 | 4527 ft | 171 kts | 243° |
| 2026-04-26 20:15 | 28.23421 | -81.67476 | 4418 ft | 166 kts | 243° |
| 2026-04-26 20:15 | 28.22858 | -81.68580 | 4157 ft | 158 kts | 242° |
| 2026-04-26 20:16 | 28.22500 | -81.69716 | 3888 ft | 152 kts | 272° |
| 2026-04-26 20:16 | 28.22891 | -81.70758 | 3643 ft | 146 kts | 305° |
| 2026-04-26 20:16 | 28.23517 | -81.71652 | 3390 ft | 143 kts | 306° |
| 2026-04-26 20:16 | 28.24124 | -81.72540 | 3145 ft | 141 kts | 306° |
| 2026-04-26 20:17 | 28.24568 | -81.73500 | 2893 ft | 139 kts | 276° |
| 2026-04-26 20:17 | 28.24495 | -81.74584 | 2653 ft | 136 kts | 265° |
| 2026-04-26 20:17 | 28.24384 | -81.75613 | 2393 ft | 128 kts | 262° |
| 2026-04-26 20:17 | 28.24121 | -81.76197 | 2223 ft | 129 kts | 229° |
| 2026-04-26 20:18 | 28.23018 | -81.76851 | 1902 ft | 136 kts | 210° |
| 2026-04-26 20:18 | 28.22193 | -81.77395 | 1668 ft | 140 kts | 219° |
| 2026-04-26 20:18 | 28.21372 | -81.78029 | 1449 ft | 145 kts | 217° |
| 2026-04-26 20:18 | 28.20543 | -81.78659 | 1227 ft | 145 kts | 219° |
| 2026-04-26 20:19 | 28.19725 | -81.79226 | 1205 ft | 136 kts | 215° |
| 2026-04-26 20:19 | 28.18978 | -81.79762 | 1212 ft | 124 kts | 218° |
| 2026-04-26 20:19 | 28.18292 | -81.80257 | 1197 ft | 108 kts | 217° |
| 2026-04-26 20:19 | 28.17619 | -81.80535 | 1202 ft | 104 kts | 196° |
| 2026-04-26 20:20 | 28.16944 | -81.80754 | 1181 ft | 99 kts | 205° |
| 2026-04-26 20:20 | 28.16284 | -81.81004 | 1155 ft | 104 kts | 201° |
| 2026-04-26 20:20 | 28.15605 | -81.81297 | 1230 ft | 107 kts | 208° |
| 2026-04-26 20:20 | 28.14881 | -81.81637 | 1250 ft | 118 kts | 207° |
| 2026-04-26 20:21 | 28.14109 | -81.81993 | 1197 ft | 120 kts | 209° |
| 2026-04-26 20:21 | 28.13380 | -81.82374 | 1163 ft | 111 kts | 212° |
| 2026-04-26 20:21 | 28.12676 | -81.82690 | 1123 ft | 102 kts | 205° |
| 2026-04-26 20:21 | 28.12056 | -81.82974 | 1160 ft | 94 kts | 221° |
| 2026-04-26 20:22 | 28.11677 | -81.83542 | 1215 ft | 91 kts | 250° |
| 2026-04-26 20:22 | 28.11402 | -81.84224 | 1213 ft | 96 kts | 244° |
| 2026-04-26 20:22 | 28.11126 | -81.84884 | 1190 ft | 89 kts | 249° |
| 2026-04-26 20:22 | 28.10896 | -81.85538 | 1183 ft | 90 kts | 250° |
| 2026-04-26 20:23 | 28.10632 | -81.86181 | 1192 ft | 92 kts | 246° |
| 2026-04-26 20:23 | 28.10394 | -81.86867 | 1181 ft | 92 kts | 250° |
| 2026-04-26 20:23 | 28.10120 | -81.87511 | 1226 ft | 92 kts | 248° |
| 2026-04-26 20:23 | 28.09831 | -81.88181 | 1279 ft | 97 kts | 249° |
| 2026-04-26 20:24 | 28.09563 | -81.88852 | 1230 ft | 89 kts | 251° |
| 2026-04-26 20:24 | 28.09331 | -81.89448 | 1198 ft | 82 kts | 250° |
| 2026-04-26 20:24 | 28.09117 | -81.90059 | 1203 ft | 87 kts | 250° |
| 2026-04-26 20:24 | 28.08851 | -81.90706 | 1242 ft | 96 kts | 249° |
| 2026-04-26 20:25 | 28.08539 | -81.91402 | 1223 ft | 102 kts | 249° |
| 2026-04-26 20:25 | 28.08334 | -81.91888 | 1268 ft | 101 kts | 248° |
| 2026-04-26 20:25 | 28.07954 | -81.92848 | 1316 ft | 101 kts | 251° |
| 2026-04-26 20:25 | 28.07673 | -81.93581 | 1280 ft | 98 kts | 249° |
| 2026-04-26 20:26 | 28.07446 | -81.94280 | 1185 ft | 89 kts | 255° |
| 2026-04-26 20:26 | 28.07339 | -81.94949 | 1233 ft | 88 kts | 269° |
| 2026-04-26 20:26 | 28.07360 | -81.95675 | 1215 ft | 95 kts | 274° |
| 2026-04-26 20:26 | 28.07432 | -81.96378 | 1203 ft | 89 kts | 278° |
| 2026-04-26 20:27 | 28.07501 | -81.97049 | 1171 ft | 84 kts | 274° |
| 2026-04-26 20:27 | 28.07434 | -81.97702 | 1177 ft | 85 kts | 246° |
| 2026-04-26 20:27 | 28.07067 | -81.98224 | 1246 ft | 86 kts | 233° |
| 2026-04-26 20:27 | 28.06649 | -81.98765 | 1156 ft | 98 kts | 232° |
| 2026-04-26 20:28 | 28.06200 | -81.99354 | 1084 ft | 100 kts | 234° |
| 2026-04-26 20:28 | 28.05756 | -81.99943 | 1182 ft | 94 kts | 235° |
| 2026-04-26 20:28 | 28.05366 | -82.00561 | 1159 ft | 100 kts | 239° |
| 2026-04-26 20:28 | 28.05010 | -82.01242 | 1169 ft | 102 kts | 240° |
| 2026-04-26 20:29 | 28.04603 | -82.01899 | 1185 ft | 104 kts | 229° |
| 2026-04-26 20:29 | 28.04045 | -82.02426 | 1186 ft | 103 kts | 211° |
| 2026-04-26 20:29 | 28.03334 | -82.02403 | 1212 ft | 107 kts | 171° |
| 2026-04-26 20:29 | 28.02627 | -82.02171 | 1192 ft | 105 kts | 167° |
| 2026-04-26 20:30 | 28.01917 | -82.01941 | 1188 ft | 106 kts | 168° |
| 2026-04-26 20:30 | 28.01208 | -82.01750 | 1110 ft | 103 kts | 175° |
| 2026-04-26 20:30 | 28.00517 | -82.01607 | 1157 ft | 99 kts | 178° |
| 2026-04-26 20:30 | 27.99860 | -82.01500 | 1158 ft | 92 kts | 177° |
| 2026-04-26 20:31 | 27.99345 | -82.01189 | 1150 ft | 89 kts | 96° |
| 2026-04-26 20:31 | 27.99443 | -82.00468 | 1176 ft | 96 kts | 70° |
| 2026-04-26 20:31 | 27.99610 | -81.99742 | 1167 ft | 93 kts | 70° |
| 2026-04-26 20:31 | 27.99777 | -81.99068 | 1157 ft | 89 kts | 70° |
| 2026-04-26 20:32 | 27.99947 | -81.98402 | 1117 ft | 89 kts | 69° |
| 2026-04-26 20:32 | 28.00155 | -81.97729 | 1114 ft | 92 kts | 67° |
| 2026-04-26 20:32 | 28.00272 | -81.96992 | 1107 ft | 96 kts | 81° |
| 2026-04-26 20:32 | 28.00350 | -81.96246 | 1184 ft | 97 kts | 80° |
| 2026-04-26 20:33 | 28.00447 | -81.95482 | 1258 ft | 101 kts | 80° |
| 2026-04-26 20:33 | 28.00556 | -81.94678 | 1206 ft | 104 kts | 78° |
| 2026-04-26 20:33 | 28.00615 | -81.93858 | 1216 ft | 106 kts | 101° |
| 2026-04-26 20:33 | 28.00112 | -81.93399 | 1170 ft | 96 kts | 186° |
| 2026-04-26 20:34 | 27.99461 | -81.93417 | 1162 ft | 93 kts | 197° |
| 2026-04-26 20:34 | 27.98984 | -81.93796 | 1198 ft | 84 kts | 255° |
| 2026-04-26 20:34 | 27.99087 | -81.94425 | 1191 ft | 84 kts | 285° |
| 2026-04-26 20:34 | 27.99107 | -81.95076 | 1101 ft | 82 kts | 267° |
| 2026-04-26 20:35 | 27.99078 | -81.95709 | 1083 ft | 80 kts | 269° |
| 2026-04-26 20:35 | 27.99092 | -81.96348 | 1080 ft | 84 kts | 269° |
| 2026-04-26 20:35 | 27.99058 | -81.97027 | 992 ft | 90 kts | 265° |
| 2026-04-26 20:35 | 27.99045 | -81.97742 | 852 ft | 90 kts | 270° |
| 2026-04-26 20:36 | 27.99057 | -81.98447 | 674 ft | 87 kts | 269° |
| 2026-04-26 20:36 | 27.99038 | -81.99084 | 639 ft | 78 kts | 268° |
| 2026-04-26 20:36 | 27.99049 | -81.99686 | 569 ft | 77 kts | 270° |
| 2026-04-26 20:36 | 27.99041 | -82.00318 | 490 ft | 85 kts | 269° |
| 2026-04-26 20:37 | 27.99039 | -82.00959 | 375 ft | 74 kts | 273° |
| 2026-04-26 20:37 | 27.99038 | -82.01506 | 181 ft | 69 kts | 270° |
| 2026-04-26 20:37 | 27.99037 | -82.01963 | 147 ft | 47 kts | 271° |
| 2026-04-26 20:37 | 27.99035 | -82.02311 | 147 ft | 44 kts | 269° |
| 2026-04-26 20:38 | 27.99035 | -82.02665 | 147 ft | 46 kts | 270° |
| 2026-04-26 20:38 | 27.99035 | -82.03019 | 147 ft | 39 kts | 270° |
| 2026-04-26 20:38 | 27.99035 | -82.03243 | 147 ft | 23 kts | 269° |
| 2026-04-26 20:38 | 27.99008 | -82.03347 | 147 ft | 0 kts | 200° |
| 2026-04-26 20:39 | 27.98982 | -82.03353 | 147 ft | 11 kts | 185° |
| 2026-04-26 20:39 | 27.98903 | -82.03355 | 148 ft | 21 kts | 180° |
| 2026-04-26 20:39 | 27.98816 | -82.03270 | 147 ft | 17 kts | 91° |
| 2026-04-26 20:39 | 27.98816 | -82.03103 | 147 ft | 23 kts | 91° |
| 2026-04-26 20:40 | 27.98816 | -82.02946 | 147 ft | 18 kts | 91° |
| 2026-04-26 20:40 | 27.98815 | -82.02795 | 146 ft | 21 kts | 90° |
| 2026-04-26 20:40 | 27.98816 | -82.02615 | 147 ft | 23 kts | 89° |
| 2026-04-26 20:40 | 27.98818 | -82.02439 | 146 ft | 22 kts | 89° |
| 2026-04-26 20:41 | 27.98804 | -82.02297 | 147 ft | 9 kts | 156° |
| 2026-04-26 20:41 | 27.98768 | -82.02294 | 147 ft | 5 kts | 178° |
| 2026-04-26 20:41 | 27.98731 | -82.02261 | 147 ft | 9 kts | 90° |
| 2026-04-26 20:41 | 27.98731 | -82.02152 | 147 ft | 14 kts | 89° |
| 2026-04-26 20:42 | 27.98731 | -82.02124 | 147 ft | 2 kts | 81° |
| 2026-04-26 20:42 | 27.98732 | -82.02052 | 147 ft | 15 kts | 89° |
| 2026-04-26 20:42 | 27.98731 | -82.01896 | 147 ft | 24 kts | 92° |
| 2026-04-26 20:42 | 27.98708 | -82.01804 | 147 ft | 5 kts | 221° |
| 2026-04-26 20:43 | 27.98668 | -82.01849 | 147 ft | 15 kts | 226° |
| 2026-04-26 20:43 | 27.98585 | -82.01944 | 147 ft | 18 kts | 225° |
| 2026-04-26 20:43 | 27.98543 | -82.01991 | 147 ft | 1 kts | 225° |
| 2026-04-26 20:43 | 27.98487 | -82.02055 | 147 ft | 23 kts | 224° |
| 2026-04-26 20:44 | 27.98394 | -82.02081 | 147 ft | 15 kts | 136° |
| 2026-04-26 20:44 | 27.98323 | -82.01973 | 147 ft | 18 kts | 97° |
| 2026-04-26 20:44 | 27.98325 | -82.01793 | 147 ft | 27 kts | 87° |
| 2026-04-26 20:44 | 27.98329 | -82.01593 | 147 ft | 21 kts | 89° |
| 2026-04-26 20:45 | 27.98366 | -82.01509 | 147 ft | 1 kts | 95° |
| 2026-04-26 20:45 | 27.98366 | -82.01508 | 147 ft | 0 kts | 92° |
| 2026-04-26 20:58 | 27.98354 | -82.01494 | 140 ft | 5 kts | 163° |
| 2026-04-26 20:58 | 27.98330 | -82.01440 | 147 ft | 14 kts | 90° |
| 2026-04-26 20:59 | 27.98334 | -82.01297 | 147 ft | 23 kts | 87° |
| 2026-04-26 20:59 | 27.98337 | -82.01136 | 147 ft | 17 kts | 89° |
| 2026-04-26 20:59 | 27.98388 | -82.01101 | 147 ft | 7 kts | 357° |
| 2026-04-26 20:59 | 27.98440 | -82.01104 | 147 ft | 11 kts | 358° |
| 2026-04-26 21:00 | 27.98543 | -82.01106 | 147 ft | 19 kts | 359° |
| 2026-04-26 21:00 | 27.98691 | -82.01110 | 147 ft | 22 kts | 357° |
| 2026-04-26 21:00 | 27.98741 | -82.01069 | 147 ft | 11 kts | 89° |
| 2026-04-26 21:00 | 27.98745 | -82.00948 | 147 ft | 19 kts | 88° |
| 2026-04-26 21:01 | 27.98748 | -82.00783 | 147 ft | 16 kts | 89° |
| 2026-04-26 21:01 | 27.98772 | -82.00753 | 147 ft | 3 kts | 355° |
| 2026-04-26 21:01 | 27.98818 | -82.00756 | 146 ft | 8 kts | 356° |
| 2026-04-26 21:01 | 27.98852 | -82.00758 | 146 ft | 0 kts | 358° |
| 2026-04-26 21:02 | 27.98906 | -82.00762 | 147 ft | 11 kts | 347° |
| 2026-04-26 21:02 | 27.98929 | -82.00806 | 147 ft | 6 kts | 274° |
| 2026-04-26 21:03 | 27.98928 | -82.00886 | 147 ft | 21 kts | 269° |
| 2026-04-26 21:03 | 27.98928 | -82.01226 | 148 ft | 64 kts | 270° |
| 2026-04-26 21:03 | 27.98920 | -82.01807 | 230 ft | 84 kts | 268° |
| 2026-04-26 21:03 | 27.98865 | -82.02492 | 429 ft | 91 kts | 261° |
| 2026-04-26 21:04 | 27.98719 | -82.03213 | 639 ft | 98 kts | 261° |
| 2026-04-26 21:04 | 27.98634 | -82.04009 | 847 ft | 106 kts | 265° |
| 2026-04-26 21:04 | 27.98640 | -82.04848 | 1048 ft | 108 kts | 271° |
| 2026-04-26 21:04 | 27.98664 | -82.05734 | 1250 ft | 117 kts | 274° |
| 2026-04-26 21:05 | 27.98671 | -82.06653 | 1437 ft | 118 kts | 271° |
| 2026-04-26 21:05 | 27.98693 | -82.07582 | 1644 ft | 119 kts | 272° |
| 2026-04-26 21:05 | 27.98723 | -82.08521 | 1843 ft | 121 kts | 272° |
| 2026-04-26 21:05 | 27.98758 | -82.09470 | 2040 ft | 118 kts | 271° |
| 2026-04-26 21:06 | 27.99057 | -82.10340 | 2211 ft | 128 kts | 315° |
| 2026-04-26 21:06 | 27.99944 | -82.10566 | 2414 ft | 145 kts | 8° |
| 2026-04-26 21:06 | 28.00784 | -82.09892 | 2617 ft | 154 kts | 43° |
| 2026-04-26 21:06 | 28.01494 | -82.09001 | 2814 ft | 153 kts | 43° |
| 2026-04-26 21:07 | 28.02194 | -82.08118 | 2996 ft | 148 kts | 43° |
| 2026-04-26 21:07 | 28.02919 | -82.07210 | 3011 ft | 163 kts | 43° |
| 2026-04-26 21:07 | 28.03700 | -82.06255 | 3019 ft | 170 kts | 42° |
| 2026-04-26 21:07 | 28.04521 | -82.05262 | 3009 ft | 175 kts | 43° |
| 2026-04-26 21:08 | 28.05369 | -82.04242 | 3007 ft | 181 kts | 45° |
| 2026-04-26 21:08 | 28.06058 | -82.03026 | 3007 ft | 185 kts | 61° |
| 2026-04-26 21:08 | 28.06642 | -82.01727 | 3013 ft | 186 kts | 58° |
| 2026-04-26 21:08 | 28.07291 | -82.00447 | 3006 ft | 187 kts | 56° |
| 2026-04-26 21:09 | 28.07949 | -81.99181 | 3004 ft | 187 kts | 57° |
| 2026-04-26 21:09 | 28.08604 | -81.97896 | 3008 ft | 189 kts | 56° |
| 2026-04-26 21:09 | 28.09276 | -81.96611 | 3006 ft | 190 kts | 56° |
| 2026-04-26 21:09 | 28.09944 | -81.95329 | 2997 ft | 192 kts | 56° |
| 2026-04-26 21:10 | 28.10620 | -81.94020 | 3005 ft | 193 kts | 56° |
| 2026-04-26 21:10 | 28.11293 | -81.92708 | 2995 ft | 192 kts | 56° |
| 2026-04-26 21:10 | 28.11968 | -81.91406 | 3000 ft | 191 kts | 56° |
| 2026-04-26 21:10 | 28.12636 | -81.90108 | 3000 ft | 191 kts | 57° |
| 2026-04-26 21:11 | 28.13297 | -81.88819 | 2998 ft | 188 kts | 57° |
| 2026-04-26 21:11 | 28.13954 | -81.87544 | 2996 ft | 188 kts | 58° |
| 2026-04-26 21:11 | 28.14613 | -81.86263 | 2995 ft | 187 kts | 57° |
| 2026-04-26 21:11 | 28.15267 | -81.84994 | 2998 ft | 186 kts | 56° |
| 2026-04-26 21:12 | 28.15918 | -81.83737 | 2995 ft | 188 kts | 58° |
| 2026-04-26 21:12 | 28.16577 | -81.82457 | 2996 ft | 188 kts | 57° |
| 2026-04-26 21:12 | 28.17235 | -81.81177 | 2990 ft | 187 kts | 57° |
| 2026-04-26 21:12 | 28.17887 | -81.79908 | 2997 ft | 188 kts | 56° |
| 2026-04-26 21:13 | 28.18547 | -81.78629 | 2994 ft | 187 kts | 56° |
| 2026-04-26 21:13 | 28.19200 | -81.77352 | 2999 ft | 188 kts | 57° |
| 2026-04-26 21:13 | 28.19858 | -81.76076 | 2994 ft | 186 kts | 57° |
| 2026-04-26 21:13 | 28.20510 | -81.74811 | 2994 ft | 186 kts | 56° |
| 2026-04-26 21:14 | 28.21162 | -81.73551 | 2993 ft | 185 kts | 56° |
| 2026-04-26 21:14 | 28.21792 | -81.72311 | 2998 ft | 183 kts | 57° |
| 2026-04-26 21:14 | 28.22429 | -81.71063 | 2994 ft | 182 kts | 57° |
| 2026-04-26 21:14 | 28.23066 | -81.69825 | 2992 ft | 181 kts | 57° |
| 2026-04-26 21:15 | 28.23704 | -81.68592 | 2992 ft | 181 kts | 58° |
| 2026-04-26 21:15 | 28.24341 | -81.67347 | 2995 ft | 184 kts | 57° |
| 2026-04-26 21:15 | 28.24978 | -81.66096 | 2999 ft | 183 kts | 58° |
| 2026-04-26 21:15 | 28.25625 | -81.64842 | 2993 ft | 184 kts | 57° |
| 2026-04-26 21:16 | 28.26271 | -81.63584 | 2990 ft | 185 kts | 58° |
| 2026-04-26 21:16 | 28.26914 | -81.62326 | 2989 ft | 184 kts | 57° |
| 2026-04-26 21:16 | 28.27550 | -81.61083 | 2989 ft | 185 kts | 57° |
| 2026-04-26 21:16 | 28.28197 | -81.59821 | 2986 ft | 185 kts | 57° |
| 2026-04-26 21:17 | 28.28843 | -81.58558 | 2988 ft | 185 kts | 57° |
| 2026-04-26 21:17 | 28.29485 | -81.57303 | 2984 ft | 184 kts | 58° |
| 2026-04-26 21:17 | 28.30127 | -81.56050 | 2988 ft | 183 kts | 57° |
| 2026-04-26 21:17 | 28.30764 | -81.54803 | 2981 ft | 183 kts | 56° |
| 2026-04-26 21:18 | 28.31404 | -81.53554 | 2983 ft | 182 kts | 58° |
| 2026-04-26 21:18 | 28.32038 | -81.52307 | 2990 ft | 183 kts | 57° |
| 2026-04-26 21:18 | 28.32681 | -81.51052 | 2985 ft | 185 kts | 57° |
| 2026-04-26 21:18 | 28.33312 | -81.49818 | 2994 ft | 182 kts | 57° |
| 2026-04-26 21:19 | 28.33954 | -81.48566 | 2992 ft | 185 kts | 56° |
| 2026-04-26 21:19 | 28.34598 | -81.47301 | 2986 ft | 185 kts | 58° |
| 2026-04-26 21:19 | 28.35236 | -81.46051 | 2989 ft | 182 kts | 58° |
| 2026-04-26 21:19 | 28.35871 | -81.44805 | 2985 ft | 183 kts | 57° |
| 2026-04-26 21:20 | 28.36505 | -81.43562 | 2989 ft | 182 kts | 58° |
| 2026-04-26 21:20 | 28.37146 | -81.42309 | 2986 ft | 184 kts | 57° |
| 2026-04-26 21:20 | 28.37795 | -81.41037 | 2804 ft | 190 kts | 58° |
| 2026-04-26 21:20 | 28.38443 | -81.39754 | 2448 ft | 184 kts | 57° |
| 2026-04-26 21:21 | 28.39066 | -81.38532 | 2134 ft | 179 kts | 57° |
| 2026-04-26 21:21 | 28.39684 | -81.37322 | 1818 ft | 175 kts | 56° |
| 2026-04-26 21:21 | 28.40279 | -81.36148 | 1666 ft | 164 kts | 58° |
| 2026-04-26 21:21 | 28.40923 | -81.35158 | 1654 ft | 150 kts | 35° |
| 2026-04-26 21:22 | 28.41820 | -81.34705 | 1636 ft | 133 kts | 6° |
| 2026-04-26 21:22 | 28.42685 | -81.34678 | 1629 ft | 112 kts | 353° |
| 2026-04-26 21:22 | 28.43149 | -81.34682 | 1677 ft | 97 kts | 354° |
| 2026-04-26 21:23 | 28.44409 | -81.34559 | 1500 ft | 89 kts | 9° |
| 2026-04-26 21:23 | 28.44920 | -81.34163 | 1008 ft | 93 kts | 20° |
| 2026-04-26 21:23 | 28.45155 | -81.33481 | 577 ft | 96 kts | 59° |
| 2026-04-26 21:23 | 28.44844 | -81.32703 | 156 ft | 81 kts | 182° |
| 2026-04-26 21:24 | 28.44375 | -81.32686 | 104 ft | 57 kts | 182° |
| 2026-04-26 21:24 | 28.44113 | -81.32690 | 103 ft | 56 kts | 179° |
| 2026-04-26 21:24 | 28.43761 | -81.32686 | 104 ft | 30 kts | 180° |
| 2026-04-26 21:24 | 28.43673 | -81.32752 | 104 ft | 17 kts | 263° |
| 2026-04-26 21:25 | 28.43668 | -81.32919 | 103 ft | 24 kts | 270° |
| 2026-04-26 21:25 | 28.43695 | -81.32974 | 102 ft | 0 kts | 4° |
| 2026-04-26 21:25 | 28.43700 | -81.32960 | 102 ft | 8 kts | 107° |
| 2026-04-26 21:26 | 28.43668 | -81.32836 | 103 ft | 20 kts | 95° |
| 2026-04-26 21:26 | 28.43670 | -81.32786 | 103 ft | 0 kts | 86° |
| 2026-04-26 21:26 | 28.43671 | -81.32756 | 104 ft | 11 kts | 91° |
| 2026-04-26 21:27 | 28.43546 | -81.32693 | 104 ft | 44 kts | 176° |
| 2026-04-26 21:27 | 28.43050 | -81.32673 | 202 ft | 88 kts | 188° |
| 2026-04-26 21:27 | 28.42372 | -81.32670 | 472 ft | 104 kts | 192° |
| 2026-04-26 21:27 | 28.41697 | -81.33007 | 704 ft | 114 kts | 226° |
| 2026-04-26 21:28 | 28.41218 | -81.33757 | 952 ft | 121 kts | 238° |
| 2026-04-26 21:28 | 28.40727 | -81.34570 | 1217 ft | 127 kts | 238° |
| 2026-04-26 21:28 | 28.40219 | -81.35397 | 1486 ft | 129 kts | 238° |
| 2026-04-26 21:28 | 28.39704 | -81.36232 | 1769 ft | 129 kts | 238° |
| 2026-04-26 21:29 | 28.39190 | -81.37071 | 2037 ft | 134 kts | 239° |
| 2026-04-26 21:29 | 28.38651 | -81.37943 | 2270 ft | 137 kts | 237° |
| 2026-04-26 21:29 | 28.38087 | -81.38851 | 2450 ft | 145 kts | 238° |
| 2026-04-26 21:29 | 28.37476 | -81.39840 | 2496 ft | 158 kts | 237° |
| 2026-04-26 21:30 | 28.36824 | -81.40885 | 2489 ft | 166 kts | 236° |
| 2026-04-26 21:30 | 28.36205 | -81.42002 | 2496 ft | 168 kts | 242° |
| 2026-04-26 21:30 | 28.35641 | -81.43173 | 2493 ft | 170 kts | 243° |
| 2026-04-26 21:30 | 28.35059 | -81.44345 | 2495 ft | 170 kts | 241° |
| 2026-04-26 21:31 | 28.34476 | -81.45508 | 2495 ft | 169 kts | 242° |
| 2026-04-26 21:31 | 28.33899 | -81.46660 | 2493 ft | 170 kts | 242° |
| 2026-04-26 21:31 | 28.33311 | -81.47830 | 2500 ft | 171 kts | 242° |
| 2026-04-26 21:31 | 28.32718 | -81.49010 | 2503 ft | 172 kts | 242° |
| 2026-04-26 21:32 | 28.32121 | -81.50191 | 2497 ft | 172 kts | 242° |
| 2026-04-26 21:32 | 28.31526 | -81.51365 | 2484 ft | 171 kts | 243° |
| 2026-04-26 21:32 | 28.30939 | -81.52539 | 2482 ft | 170 kts | 242° |
| 2026-04-26 21:32 | 28.30354 | -81.53700 | 2489 ft | 169 kts | 242° |
| 2026-04-26 21:33 | 28.29769 | -81.54859 | 2475 ft | 169 kts | 241° |
| 2026-04-26 21:33 | 28.29184 | -81.56019 | 2490 ft | 171 kts | 241° |
| 2026-04-26 21:33 | 28.28603 | -81.57178 | 2491 ft | 172 kts | 242° |
| 2026-04-26 21:33 | 28.28013 | -81.58346 | 2477 ft | 170 kts | 242° |
| 2026-04-26 21:34 | 28.27466 | -81.59431 | 2485 ft | 169 kts | 242° |
| 2026-04-26 21:34 | 28.26882 | -81.60591 | 2491 ft | 171 kts | 243° |
| 2026-04-26 21:34 | 28.26289 | -81.61765 | 2484 ft | 172 kts | 242° |
| 2026-04-26 21:34 | 28.25699 | -81.62935 | 2482 ft | 170 kts | 243° |
| 2026-04-26 21:35 | 28.25110 | -81.64104 | 2489 ft | 171 kts | 242° |
| 2026-04-26 21:35 | 28.24518 | -81.65273 | 2496 ft | 171 kts | 242° |
| 2026-04-26 21:35 | 28.23924 | -81.66452 | 2490 ft | 172 kts | 242° |
| 2026-04-26 21:35 | 28.23329 | -81.67624 | 2287 ft | 169 kts | 243° |
| 2026-04-26 21:36 | 28.22744 | -81.68773 | 2037 ft | 167 kts | 243° |
| 2026-04-26 21:36 | 28.22186 | -81.69889 | 1800 ft | 166 kts | 242° |
| 2026-04-26 21:36 | 28.21620 | -81.71018 | 1542 ft | 162 kts | 243° |
| 2026-04-26 21:36 | 28.21069 | -81.72100 | 1286 ft | 155 kts | 242° |
| 2026-04-26 21:37 | 28.20554 | -81.73122 | 1186 ft | 141 kts | 243° |
| 2026-04-26 21:37 | 28.20086 | -81.74046 | 1193 ft | 131 kts | 244° |
| 2026-04-26 21:37 | 28.19638 | -81.74933 | 1201 ft | 127 kts | 244° |
| 2026-04-26 21:37 | 28.19187 | -81.75829 | 1191 ft | 132 kts | 243° |
| 2026-04-26 21:38 | 28.18728 | -81.76733 | 1206 ft | 134 kts | 239° |
| 2026-04-26 21:38 | 28.18273 | -81.77628 | 1202 ft | 130 kts | 243° |
| 2026-04-26 21:38 | 28.17823 | -81.78526 | 1211 ft | 131 kts | 241° |
| 2026-04-26 21:38 | 28.17362 | -81.79431 | 1201 ft | 132 kts | 241° |
| 2026-04-26 21:39 | 28.16908 | -81.80327 | 1202 ft | 131 kts | 241° |
| 2026-04-26 21:39 | 28.16253 | -81.81035 | 1188 ft | 133 kts | 208° |
| 2026-04-26 21:39 | 28.15382 | -81.81403 | 1194 ft | 135 kts | 206° |
| 2026-04-26 21:39 | 28.14516 | -81.81829 | 1196 ft | 137 kts | 207° |
| 2026-04-26 21:40 | 28.13640 | -81.82247 | 1202 ft | 138 kts | 206° |
| 2026-04-26 21:40 | 28.12762 | -81.82658 | 1187 ft | 136 kts | 209° |
| 2026-04-26 21:40 | 28.11937 | -81.83110 | 1200 ft | 131 kts | 223° |
| 2026-04-26 21:40 | 28.11372 | -81.83925 | 1204 ft | 134 kts | 241° |
| 2026-04-26 21:41 | 28.10935 | -81.84851 | 1199 ft | 132 kts | 244° |
| 2026-04-26 21:41 | 28.10564 | -81.85741 | 1190 ft | 120 kts | 254° |
| 2026-04-26 21:41 | 28.10303 | -81.86606 | 1188 ft | 113 kts | 252° |
| 2026-04-26 21:41 | 28.10026 | -81.87416 | 1186 ft | 109 kts | 249° |
| 2026-04-26 21:42 | 28.09742 | -81.88205 | 1202 ft | 110 kts | 253° |
| 2026-04-26 21:42 | 28.09456 | -81.89022 | 1192 ft | 111 kts | 252° |
| 2026-04-26 21:42 | 28.09166 | -81.89805 | 1193 ft | 105 kts | 253° |
| 2026-04-26 21:42 | 28.08892 | -81.90551 | 1191 ft | 102 kts | 250° |
| 2026-04-26 21:43 | 28.08618 | -81.91304 | 1159 ft | 105 kts | 250° |
| 2026-04-26 21:43 | 28.08386 | -81.92081 | 1185 ft | 103 kts | 251° |
| 2026-04-26 21:43 | 28.08180 | -81.92852 | 1222 ft | 103 kts | 260° |
| 2026-04-26 21:43 | 28.08095 | -81.93664 | 1204 ft | 107 kts | 266° |
| 2026-04-26 21:44 | 28.08033 | -81.94497 | 1203 ft | 106 kts | 269° |
| 2026-04-26 21:44 | 28.07978 | -81.95327 | 1277 ft | 106 kts | 269° |
| 2026-04-26 21:44 | 28.07939 | -81.96195 | 1229 ft | 112 kts | 269° |
| 2026-04-26 21:44 | 28.07884 | -81.97090 | 1109 ft | 117 kts | 263° |
| 2026-04-26 21:45 | 28.07629 | -81.97945 | 1143 ft | 113 kts | 249° |
| 2026-04-26 21:45 | 28.07253 | -81.98712 | 1195 ft | 112 kts | 241° |
| 2026-04-26 21:45 | 28.06775 | -81.99421 | 1177 ft | 113 kts | 234° |
| 2026-04-26 21:45 | 28.06255 | -82.00087 | 1172 ft | 114 kts | 232° |
| 2026-04-26 21:46 | 28.05720 | -82.00733 | 1147 ft | 114 kts | 231° |
| 2026-04-26 21:46 | 28.05183 | -82.01406 | 1187 ft | 115 kts | 232° |
| 2026-04-26 21:46 | 28.04621 | -82.02050 | 1125 ft | 117 kts | 218° |
| 2026-04-26 21:46 | 28.03861 | -82.02252 | 1262 ft | 117 kts | 179° |
| 2026-04-26 21:47 | 28.03034 | -82.02117 | 1210 ft | 122 kts | 178° |
| 2026-04-26 21:47 | 28.02192 | -82.02004 | 1256 ft | 124 kts | 180° |
| 2026-04-26 21:47 | 28.01349 | -82.01882 | 1208 ft | 122 kts | 161° |
| 2026-04-26 21:47 | 28.00803 | -82.01157 | 1151 ft | 127 kts | 102° |
| 2026-04-26 21:48 | 28.00820 | -82.00162 | 1140 ft | 127 kts | 83° |
| 2026-04-26 21:48 | 28.00712 | -81.99192 | 1135 ft | 129 kts | 134° |
| 2026-04-26 21:48 | 27.99925 | -81.98978 | 1015 ft | 117 kts | 193° |
| 2026-04-26 21:48 | 27.99241 | -81.99304 | 865 ft | 103 kts | 233° |
| 2026-04-26 21:49 | 27.99050 | -82.00059 | 629 ft | 99 kts | 272° |
| 2026-04-26 21:49 | 27.99043 | -82.00786 | 525 ft | 87 kts | 270° |
| 2026-04-26 21:49 | 27.99037 | -82.01395 | 424 ft | 66 kts | 267° |
| 2026-04-26 21:49 | 27.99037 | -82.01899 | 186 ft | 59 kts | 270° |
| 2026-04-26 21:50 | 27.99034 | -82.02281 | 147 ft | 41 kts | 271° |
| 2026-04-26 21:50 | 27.99036 | -82.02580 | 147 ft | 38 kts | 270° |
| 2026-04-26 21:50 | 27.99035 | -82.02858 | 147 ft | 34 kts | 269° |
| 2026-04-26 21:50 | 27.99035 | -82.03121 | 147 ft | 32 kts | 270° |
| 2026-04-26 21:51 | 27.99033 | -82.03306 | 147 ft | 13 kts | 260° |
| 2026-04-26 21:51 | 27.98972 | -82.03353 | 147 ft | 14 kts | 180° |
| 2026-04-26 21:51 | 27.98857 | -82.03355 | 147 ft | 2 kts | 179° |
| 2026-04-26 21:51 | 27.98840 | -82.03355 | 147 ft | 3 kts | 179° |
| 2026-04-26 21:52 | 27.98816 | -82.03300 | 147 ft | 15 kts | 88° |
| 2026-04-26 21:52 | 27.98816 | -82.03159 | 147 ft | 19 kts | 90° |
| 2026-04-26 21:52 | 27.98816 | -82.03005 | 147 ft | 20 kts | 90° |
| 2026-04-26 21:52 | 27.98815 | -82.02837 | 146 ft | 24 kts | 91° |
| 2026-04-26 21:53 | 27.98816 | -82.02633 | 147 ft | 24 kts | 88° |
| 2026-04-26 21:53 | 27.98817 | -82.02470 | 146 ft | 18 kts | 89° |
| 2026-04-26 21:53 | 27.98818 | -82.02339 | 147 ft | 15 kts | 89° |
| 2026-04-26 21:53 | 27.98762 | -82.02295 | 147 ft | 13 kts | 178° |
| 2026-04-26 21:54 | 27.98731 | -82.02225 | 147 ft | 17 kts | 90° |
| 2026-04-26 21:54 | 27.98732 | -82.02043 | 147 ft | 23 kts | 89° |
| 2026-04-26 21:54 | 27.98677 | -82.01969 | 147 ft | 13 kts | 86° |
| 2026-04-26 21:54 | 27.98704 | -82.01952 | 147 ft | 0 kts | 359° |